Lentvaris, Lithuania
Current Conditions -  °F | °C
As of 5:50 AM on Saturday 25 Oct 2014 (Local Time) from EYVI Reporting Station
Clear Clear  
Wind Chill:   Ceiling: Unl
Heat Index: 21°   Visibility: 6mi
Dew Point: 16°   Wind: 12mph
Humidity: 80%   Direction: 160°SSE
Pressure: 30.48"   Gusts: NA
Location:  54.65°N, 25.05°E
Report Text: EYVI 250250Z 16010KT CAVOK M06/M09 Q1032 NOSIG
Loading
Personal Weather Stations






























Interactive Weather Map
Tropical Storm Tracking
New forecast layout! Learn more

10-Day Weather Forecast

Advertisements
Track Severe Weather on mobile